Time;durP1;ratioP1;P1;durP2;ratioP2;P2;SDS_P1;SDS_P2;PMS_P1;PMS_P2;Temp;Humidity;BMP_temperature;BMP_pressure;BME280_temperature;BME280_humidity;BME280_pressure;Samples;Min_cycle;Max_cycle;Signal;HPM_P1;HPM_P2
2022/12/09 00:00:08;;;;;;;157.73;77.50;;;6.70;99.90;;;;;;4954324;28;20043;-78
2022/12/09 00:02:35;;;;;;;134.20;76.75;;;6.70;99.90;;;;;;4972319;28;20074;-77
2022/12/09 00:05:03;;;;;;;145.93;78.30;;;6.70;99.90;;;;;;4955084;28;20089;-79
2022/12/09 00:07:30;;;;;;;186.35;87.45;;;6.60;99.90;;;;;;4972612;28;20078;-78
2022/12/09 00:09:58;;;;;;;129.10;71.45;;;6.50;99.90;;;;;;4971041;28;20049;-77
2022/12/09 00:12:25;;;;;;;172.60;87.45;;;6.40;99.90;;;;;;4971980;28;20050;-77
2022/12/09 00:14:54;;;;;;;149.75;79.70;;;6.40;99.90;;;;;;4972032;28;20050;-78
2022/12/09 00:17:22;;;;;;;134.43;73.63;;;6.40;99.90;;;;;;4972413;28;20047;-79
2022/12/09 00:19:49;;;;;;;140.93;77.50;;;6.30;99.90;;;;;;4971171;28;20418;-78
2022/12/09 00:22:16;;;;;;;125.38;71.28;;;6.30;99.90;;;;;;4972134;28;20049;-78
2022/12/09 00:24:44;;;;;;;162.70;86.32;;;6.30;99.90;;;;;;4972261;28;20043;-77
2022/12/09 00:27:11;;;;;;;138.65;73.75;;;6.30;99.90;;;;;;4972208;28;20042;-79
2022/12/09 00:29:39;;;;;;;162.52;82.57;;;6.20;99.90;;;;;;4954476;28;20038;-80
2022/12/09 00:32:09;;;;;;;130.93;73.57;;;6.20;99.90;;;;;;4971345;28;20049;-78
2022/12/09 00:34:37;;;;;;;156.65;83.38;;;6.10;99.90;;;;;;4972367;28;20042;-79
2022/12/09 00:37:06;;;;;;;197.93;92.90;;;6.20;99.90;;;;;;4971819;28;20082;-79
2022/12/09 00:39:34;;;;;;;137.80;73.55;;;6.20;99.90;;;;;;4972423;28;20859;-78
2022/12/09 00:42:01;;;;;;;123.07;67.22;;;6.10;99.90;;;;;;4955940;28;20049;-78
2022/12/09 00:44:29;;;;;;;121.05;66.82;;;6.10;99.90;;;;;;4977751;28;20565;-80
2022/12/09 00:46:56;;;;;;;121.63;66.15;;;6.10;99.90;;;;;;4968351;28;20050;-78
2022/12/09 00:49:25;;;;;;;134.05;72.93;;;6.10;99.90;;;;;;4987355;28;20451;-78
2022/12/09 00:51:53;;;;;;;132.75;69.07;;;6.10;99.90;;;;;;4982885;28;20051;-77
2022/12/09 00:54:22;;;;;;;166.73;86.30;;;6.00;99.90;;;;;;4959658;28;20063;-79
2022/12/09 00:56:49;;;;;;;158.63;83.53;;;6.00;99.90;;;;;;4963080;28;20090;-79
2022/12/09 00:59:17;;;;;;;137.48;77.57;;;5.90;99.90;;;;;;4977650;28;20035;-79
2022/12/09 01:01:45;;;;;;;127.57;71.55;;;5.90;99.90;;;;;;4974804;28;20551;-79
2022/12/09 01:04:13;;;;;;;144.98;81.72;;;5.90;99.90;;;;;;4973085;28;20454;-76
2022/12/09 01:06:41;;;;;;;158.02;86.25;;;5.90;99.90;;;;;;4970780;28;20483;-78
2022/12/09 01:09:09;;;;;;;172.85;94.18;;;6.00;99.90;;;;;;4971211;28;20442;-78
2022/12/09 01:11:36;;;;;;;192.15;100.30;;;6.00;99.90;;;;;;4954002;28;20043;-77
2022/12/09 01:14:04;;;;;;;193.23;100.95;;;6.00;99.90;;;;;;4971441;28;20509;-78
2022/12/09 01:16:34;;;;;;;180.00;97.80;;;6.00;99.90;;;;;;4972982;28;20043;-77
2022/12/09 01:19:03;;;;;;;170.35;89.68;;;6.00;99.90;;;;;;4972948;28;20039;-79
2022/12/09 01:21:32;;;;;;;156.27;83.97;;;6.00;99.90;;;;;;4970848;28;20491;-77
2022/12/09 01:24:02;;;;;;;138.27;78.10;;;6.00;99.90;;;;;;4955608;28;20049;-78
2022/12/09 01:26:29;;;;;;;137.68;80.13;;;6.00;99.90;;;;;;4964595;28;20490;-77
2022/12/09 01:28:56;;;;;;;131.27;74.43;;;6.00;99.90;;;;;;4970104;28;20042;-77
2022/12/09 01:31:25;;;;;;;127.00;71.35;;;5.90;99.90;;;;;;4971133;28;20043;-79
2022/12/09 01:33:53;;;;;;;129.70;74.22;;;5.90;99.90;;;;;;4971408;28;20042;-81
2022/12/09 01:36:23;;;;;;;93.97;58.13;;;5.90;99.90;;;;;;4954021;28;20043;-83
2022/12/09 01:38:51;;;;;;;107.63;63.13;;;5.90;99.90;;;;;;4954446;28;20775;-80
2022/12/09 01:41:21;;;;;;;78.38;51.20;;;6.00;99.90;;;;;;4958069;28;20097;-82
2022/12/09 01:44:10;;;;;;;95.05;57.10;;;5.90;99.90;;;;;;4975316;28;20067;-82
2022/12/09 01:46:38;;;;;;;90.75;56.42;;;6.00;99.90;;;;;;4974111;28;20150;-83
2022/12/09 01:49:07;;;;;;;108.68;64.38;;;6.10;99.90;;;;;;4973474;28;20035;-82
2022/12/09 01:51:35;;;;;;;110.55;66.68;;;6.10;99.90;;;;;;4972990;28;20053;-84
2022/12/09 01:54:03;;;;;;;102.80;61.53;;;6.20;99.90;;;;;;4974949;28;20039;-81
2022/12/09 01:56:34;;;;;;;112.90;66.85;;;6.20;99.90;;;;;;4974768;28;20113;-82
2022/12/09 01:59:06;;;;;;;106.00;64.72;;;6.20;99.90;;;;;;4974417;28;20047;-83
2022/12/09 02:01:34;;;;;;;105.15;63.08;;;6.10;99.90;;;;;;4957254;28;20491;-82
2022/12/09 02:04:02;;;;;;;109.22;67.65;;;6.10;99.90;;;;;;4957425;28;20035;-81
2022/12/09 02:06:30;;;;;;;135.18;78.28;;;6.10;99.90;;;;;;4957458;28;20085;-82
2022/12/09 02:08:58;;;;;;;103.45;65.00;;;6.10;99.90;;;;;;4958124;28;20267;-84
2022/12/09 02:11:44;;;;;;;119.85;69.43;;;6.00;99.90;;;;;;4957375;28;20050;-82
2022/12/09 02:14:18;;;;;;;116.63;69.45;;;6.00;99.90;;;;;;4990832;23;20065;-79
2022/12/09 02:17:04;;;;;;;107.28;64.10;;;6.10;99.90;;;;;;4937695;29;20122;-78
2022/12/09 02:19:54;;;;;;;109.57;64.20;;;6.10;99.90;;;;;;4954907;29;20040;-79
2022/12/09 02:22:29;;;;;;;109.03;62.65;;;6.10;99.90;;;;;;4939136;29;20057;-75
2022/12/09 02:25:00;;;;;;;108.30;66.07;;;6.10;99.90;;;;;;4954488;29;20141;-76
2022/12/09 02:27:35;;;;;;;116.85;66.88;;;6.10;99.90;;;;;;4939314;29;20121;-75
2022/12/09 02:30:14;;;;;;;112.80;68.13;;;6.10;99.90;;;;;;4939051;29;20134;-76
2022/12/09 02:33:15;;;;;;;104.25;62.40;;;6.10;99.90;;;;;;4939094;29;20106;-74
2022/12/09 02:35:49;;;;;;;111.20;66.18;;;6.10;99.90;;;;;;4939287;29;20061;-77
2022/12/09 02:38:22;;;;;;;106.65;64.60;;;6.10;99.90;;;;;;4954796;29;20098;-79
2022/12/09 02:40:54;;;;;;;104.22;61.58;;;6.20;99.90;;;;;;4937952;29;20047;-77
2022/12/09 02:43:26;;;;;;;98.63;60.40;;;6.10;99.90;;;;;;4938801;29;20124;-76
2022/12/09 02:45:56;;;;;;;115.72;68.55;;;6.20;99.90;;;;;;4938995;29;20550;-76
2022/12/09 02:48:31;;;;;;;102.78;64.18;;;6.20;99.90;;;;;;4938790;29;20101;-78
2022/12/09 02:51:04;;;;;;;101.13;63.08;;;6.10;99.90;;;;;;4955518;28;20042;-75
2022/12/09 02:53:34;;;;;;;96.93;60.05;;;6.10;99.90;;;;;;4938143;29;20035;-75
2022/12/09 02:56:03;;;;;;;93.80;57.50;;;6.20;99.90;;;;;;4939815;29;20046;-76
2022/12/09 02:58:34;;;;;;;93.88;54.95;;;6.20;99.90;;;;;;4939175;29;20577;-77
2022/12/09 03:01:02;;;;;;;89.00;54.67;;;6.20;99.90;;;;;;4938501;29;20055;-77
2022/12/09 03:03:32;;;;;;;82.78;49.33;;;6.30;99.90;;;;;;4937826;29;20134;-76
2022/12/09 03:06:06;;;;;;;94.55;58.67;;;6.30;99.90;;;;;;4955080;29;20046;-76
2022/12/09 03:08:41;;;;;;;92.13;56.28;;;6.40;99.90;;;;;;4954960;29;20036;-78
2022/12/09 03:11:11;;;;;;;81.88;50.33;;;6.30;99.90;;;;;;4955713;28;20050;-76
2022/12/09 03:13:47;;;;;;;89.97;55.47;;;6.40;99.90;;;;;;4955753;29;20043;-78
2022/12/09 03:16:25;;;;;;;82.40;52.90;;;6.40;99.90;;;;;;4955095;29;20051;-76
2022/12/09 03:18:59;;;;;;;88.90;52.15;;;6.50;99.90;;;;;;4954827;29;20043;-77
2022/12/09 03:21:31;;;;;;;79.82;48.38;;;6.50;99.90;;;;;;4955399;28;20099;-76
2022/12/09 03:24:00;;;;;;;81.60;49.97;;;6.40;99.90;;;;;;4955009;29;20475;-77
2022/12/09 03:26:31;;;;;;;90.50;56.25;;;6.40;99.90;;;;;;4938040;29;20051;-77
2022/12/09 03:29:02;;;;;;;98.95;59.47;;;6.40;99.90;;;;;;4954751;29;20160;-78
2022/12/09 03:31:32;;;;;;;91.88;55.95;;;6.40;99.90;;;;;;4955113;28;20795;-75
2022/12/09 03:34:04;;;;;;;86.38;53.30;;;6.40;99.90;;;;;;4955382;29;20078;-75
2022/12/09 03:36:36;;;;;;;90.63;56.55;;;6.40;99.90;;;;;;4964389;29;20188;-77
2022/12/09 03:39:06;;;;;;;90.88;56.10;;;6.40;99.90;;;;;;4969511;29;20490;-75
2022/12/09 03:41:34;;;;;;;85.60;54.80;;;6.50;99.90;;;;;;4954695;29;20046;-77
2022/12/09 03:44:09;;;;;;;87.18;52.75;;;6.50;99.90;;;;;;4954261;29;20477;-76
2022/12/09 03:46:36;;;;;;;80.85;50.85;;;6.60;99.90;;;;;;4953054;29;20054;-77
2022/12/09 03:49:04;;;;;;;87.68;52.63;;;6.50;99.90;;;;;;4953264;29;20061;-75
2022/12/09 03:51:39;;;;;;;86.47;53.10;;;6.60;99.90;;;;;;4953907;28;20047;-77
2022/12/09 03:54:09;;;;;;;;;;;6.60;99.90;;;;;;4955580;29;20051;-76
2022/12/09 03:56:44;;;;;;;120.53;71.93;;;6.70;99.90;;;;;;4954372;29;19922;-76
2022/12/09 03:59:13;;;;;;;80.95;53.45;;;6.70;99.90;;;;;;4954640;29;20047;-76
2022/12/09 04:01:42;;;;;;;82.95;51.63;;;6.70;99.90;;;;;;4953902;28;20042;-76
2022/12/09 04:04:10;;;;;;;82.65;53.42;;;6.70;99.90;;;;;;4954938;29;20054;-74
2022/12/09 04:06:38;;;;;;;76.03;49.97;;;6.70;99.90;;;;;;4954757;29;20051;-77
2022/12/09 04:09:06;;;;;;;80.72;50.95;;;6.70;99.90;;;;;;4953560;29;20050;-77
2022/12/09 04:11:34;;;;;;;76.30;50.20;;;6.70;99.90;;;;;;4953685;28;20103;-79
2022/12/09 04:14:01;;;;;;;81.60;50.92;;;6.60;99.90;;;;;;4954660;29;20554;-77
2022/12/09 04:16:29;;;;;;;99.35;61.17;;;6.70;99.90;;;;;;4954727;29;20496;-77
2022/12/09 04:18:56;;;;;;;107.18;59.67;;;6.60;99.90;;;;;;4952138;29;20471;-76
2022/12/09 04:21:24;;;;;;;91.05;56.10;;;6.60;99.90;;;;;;4953827;29;20043;-78
2022/12/09 04:23:53;;;;;;;95.30;58.92;;;6.60;99.90;;;;;;4954218;29;20054;-77
2022/12/09 04:26:22;;;;;;;100.90;61.63;;;6.60;99.90;;;;;;4954293;29;20090;-76
2022/12/09 04:28:50;;;;;;;96.85;59.85;;;6.60;99.90;;;;;;4955462;29;20122;-76
2022/12/09 04:31:18;;;;;;;96.68;58.58;;;6.60;99.90;;;;;;4953174;29;20055;-77
2022/12/09 04:33:47;;;;;;;95.20;59.85;;;6.60;99.90;;;;;;4937353;29;20047;-77
2022/12/09 04:36:17;;;;;;;93.40;60.00;;;6.60;99.90;;;;;;4956926;29;20075;-76
2022/12/09 04:38:45;;;;;;;82.68;52.88;;;6.60;99.90;;;;;;4959001;29;20043;-75
2022/12/09 04:41:15;;;;;;;86.22;53.95;;;6.60;99.90;;;;;;4956079;29;20048;-77
2022/12/09 04:43:42;;;;;;;93.35;58.45;;;6.60;99.90;;;;;;4973754;29;20034;-76
2022/12/09 04:46:13;;;;;;;95.18;59.28;;;6.60;99.90;;;;;;4958530;29;20062;-74
2022/12/09 04:48:41;;;;;;;97.95;60.83;;;6.60;99.90;;;;;;4966517;29;20306;-76
2022/12/09 04:51:09;;;;;;;105.32;64.03;;;6.50;99.90;;;;;;4954874;29;20422;-76
2022/12/09 04:53:36;;;;;;;102.13;63.97;;;6.50;99.90;;;;;;4954336;29;20078;-76
2022/12/09 04:56:06;;;;;;;104.03;64.75;;;6.50;99.90;;;;;;4952518;29;20039;-76
2022/12/09 04:58:35;;;;;;;109.20;65.05;;;6.60;99.90;;;;;;4936890;29;20515;-76
2022/12/09 05:01:06;;;;;;;115.75;70.82;;;6.70;99.90;;;;;;4954956;29;20047;-77
2022/12/09 05:03:33;;;;;;;115.00;69.57;;;6.70;99.90;;;;;;4954298;29;20200;-77
2022/12/09 05:06:04;;;;;;;103.25;65.57;;;6.60;99.90;;;;;;4936962;29;20110;-75
2022/12/09 05:08:31;;;;;;;105.45;65.35;;;6.60;99.90;;;;;;4953698;29;20053;-77
2022/12/09 05:10:59;;;;;;;100.43;64.03;;;6.60;99.90;;;;;;4953921;28;20479;-79
2022/12/09 05:13:26;;;;;;;98.03;63.58;;;6.70;99.90;;;;;;4953545;28;20043;-77
2022/12/09 05:16:00;;;;;;;108.03;69.30;;;6.70;99.90;;;;;;4957585;29;20052;-78
2022/12/09 05:18:28;;;;;;;121.07;74.15;;;6.70;99.90;;;;;;4957832;29;20058;-79
2022/12/09 05:20:55;;;;;;;107.53;67.93;;;6.70;99.90;;;;;;4957382;28;20122;-75
2022/12/09 05:23:23;;;;;;;115.60;72.65;;;6.70;99.90;;;;;;4940959;29;20043;-75
2022/12/09 05:25:50;;;;;;;119.45;71.15;;;6.70;99.90;;;;;;4956860;29;20456;-78
2022/12/09 05:28:18;;;;;;;127.25;76.03;;;6.70;99.90;;;;;;4956768;29;20047;-75
2022/12/09 05:30:45;;;;;;;117.25;70.97;;;6.60;99.90;;;;;;4957945;28;20040;-79
2022/12/09 05:33:14;;;;;;;118.90;72.78;;;6.60;99.90;;;;;;4958057;29;20035;-75
2022/12/09 05:35:43;;;;;;;123.47;76.47;;;6.50;99.90;;;;;;4957466;29;20043;-76
2022/12/09 05:38:11;;;;;;;110.35;68.82;;;6.40;99.90;;;;;;4957464;29;20130;-76
2022/12/09 05:40:39;;;;;;;110.45;66.75;;;6.50;99.90;;;;;;4957447;28;20068;-77
2022/12/09 05:43:06;;;;;;;102.47;65.57;;;6.60;99.90;;;;;;4958045;29;20369;-74
2022/12/09 05:45:33;;;;;;;115.10;75.38;;;6.70;99.90;;;;;;4958487;29;20070;-75
2022/12/09 05:48:01;;;;;;;134.98;85.60;;;6.70;99.90;;;;;;4956707;29;20137;-75
2022/12/09 05:50:29;;;;;;;143.70;91.20;;;6.70;99.90;;;;;;4956919;28;20396;-77
2022/12/09 05:52:58;;;;;;;125.00;81.40;;;6.70;99.90;;;;;;4957413;29;20054;-78
2022/12/09 05:55:25;;;;;;;119.10;79.22;;;6.70;99.90;;;;;;4957773;29;20035;-75
2022/12/09 05:57:53;;;;;;;126.43;79.28;;;6.80;99.90;;;;;;4969662;29;20081;-77
2022/12/09 06:00:22;;;;;;;112.20;74.00;;;6.80;99.90;;;;;;4962413;28;20062;-78
2022/12/09 06:02:49;;;;;;;110.22;72.90;;;6.70;99.90;;;;;;4963770;29;20063;-76
2022/12/09 06:05:16;;;;;;;112.53;77.88;;;6.70;99.90;;;;;;4960945;29;20055;-76
2022/12/09 06:07:45;;;;;;;114.78;77.88;;;6.70;99.90;;;;;;4958653;29;20054;-76
2022/12/09 06:10:13;;;;;;;111.60;78.13;;;6.70;99.90;;;;;;4960403;29;20043;-76
2022/12/09 06:12:40;;;;;;;119.43;80.30;;;6.60;99.90;;;;;;4962622;29;20090;-77
2022/12/09 06:15:08;;;;;;;118.60;76.32;;;6.60;99.90;;;;;;4958536;29;20142;-77
2022/12/09 06:17:36;;;;;;;114.60;72.90;;;6.70;99.90;;;;;;4960440;29;20043;-76
2022/12/09 06:20:05;;;;;;;119.03;77.03;;;6.80;99.90;;;;;;4961976;29;20403;-77
2022/12/09 06:22:34;;;;;;;125.82;82.20;;;6.80;99.90;;;;;;4970086;29;20269;-78
2022/12/09 06:25:03;;;;;;;122.10;78.35;;;6.80;99.90;;;;;;4971188;28;20042;-76
2022/12/09 06:27:30;;;;;;;120.88;77.07;;;6.80;99.90;;;;;;4970012;29;20117;-77
2022/12/09 06:29:57;;;;;;;137.02;88.97;;;6.90;99.90;;;;;;4970292;28;20070;-76
2022/12/09 06:32:25;;;;;;;139.10;88.13;;;7.00;99.90;;;;;;4959914;29;20332;-78
2022/12/09 06:34:52;;;;;;;138.90;87.05;;;7.00;99.90;;;;;;4970834;29;20043;-77
2022/12/09 06:37:20;;;;;;;138.88;88.53;;;7.10;99.90;;;;;;4962233;29;20047;-77
2022/12/09 06:39:48;;;;;;;143.80;90.80;;;7.10;99.90;;;;;;4956584;28;20041;-75
2022/12/09 06:42:17;;;;;;;150.68;96.43;;;7.20;99.90;;;;;;4956438;29;20035;-75
2022/12/09 06:44:44;;;;;;;195.77;115.45;;;7.30;99.90;;;;;;4956898;29;20086;-75
2022/12/09 06:47:11;;;;;;;201.52;122.50;;;7.30;99.90;;;;;;4956051;29;20047;-76
2022/12/09 06:49:39;;;;;;;190.05;120.65;;;7.30;99.90;;;;;;4956246;28;20043;-75
2022/12/09 06:52:06;;;;;;;200.88;124.00;;;7.30;99.90;;;;;;4943674;29;20051;-75
2022/12/09 06:54:34;;;;;;;204.55;123.85;;;7.40;99.90;;;;;;4964516;29;20144;-77
2022/12/09 06:57:01;;;;;;;189.85;118.07;;;7.40;99.90;;;;;;4957528;29;20411;-75
2022/12/09 06:59:30;;;;;;;191.98;118.95;;;7.50;99.90;;;;;;4948517;28;20098;-76
2022/12/09 07:01:57;;;;;;;207.32;126.43;;;7.50;99.90;;;;;;4959594;29;20051;-76
2022/12/09 07:04:25;;;;;;;200.25;121.75;;;7.50;99.90;;;;;;4957331;29;20039;-76
2022/12/09 07:06:52;;;;;;;185.38;117.32;;;7.50;99.90;;;;;;4956713;29;20043;-76
2022/12/09 07:09:21;;;;;;;183.40;115.57;;;7.60;99.90;;;;;;4955961;28;20043;-76
2022/12/09 07:11:50;;;;;;;195.75;129.75;;;7.80;99.90;;;;;;4938680;29;20133;-76
2022/12/09 07:14:18;;;;;;;197.95;127.03;;;7.90;99.90;;;;;;4955825;29;20078;-75
2022/12/09 07:16:47;;;;;;;203.45;127.53;;;7.90;99.90;;;;;;4939464;29;20055;-76
2022/12/09 07:19:19;;;;;;;193.95;125.53;;;8.00;99.90;;;;;;4956018;28;20039;-76
2022/12/09 07:21:47;;;;;;;196.38;124.70;;;8.00;99.90;;;;;;4938561;29;20130;-76
2022/12/09 07:24:14;;;;;;;187.88;120.30;;;8.00;99.90;;;;;;4940491;29;20054;-75
2022/12/09 07:26:42;;;;;;;177.07;119.72;;;8.10;99.90;;;;;;4939439;29;20141;-76
2022/12/09 07:29:09;;;;;;;183.75;118.82;;;8.10;99.90;;;;;;4954615;29;20051;-77
2022/12/09 07:31:37;;;;;;;189.02;125.18;;;8.10;99.90;;;;;;4956298;29;20403;-76
2022/12/09 07:34:06;;;;;;;187.38;123.05;;;8.10;99.90;;;;;;4955513;29;20122;-76
2022/12/09 07:36:36;;;;;;;174.07;117.47;;;8.10;99.90;;;;;;4955543;28;20039;-77
2022/12/09 07:39:05;;;;;;;169.75;115.70;;;8.20;99.90;;;;;;4955536;28;20047;-76
2022/12/09 07:41:33;;;;;;;162.98;107.75;;;8.30;99.90;;;;;;4954927;29;20047;-75
2022/12/09 07:44:00;;;;;;;176.60;114.00;;;8.30;99.90;;;;;;4955386;29;20518;-76
2022/12/09 07:46:28;;;;;;;169.32;111.18;;;8.40;99.90;;;;;;4938660;29;20054;-77
2022/12/09 07:48:56;;;;;;;165.00;113.30;;;8.50;99.90;;;;;;4955053;28;20050;-76
2022/12/09 07:51:26;;;;;;;163.13;111.50;;;8.60;99.90;;;;;;4956108;29;20054;-76
2022/12/09 07:53:53;;;;;;;162.48;110.85;;;8.60;99.90;;;;;;4956043;29;20039;-76
2022/12/09 07:56:23;;;;;;;163.07;109.28;;;8.70;99.90;;;;;;4954801;29;20201;-75
2022/12/09 07:58:52;;;;;;;158.23;107.40;;;8.80;99.90;;;;;;4954690;28;20471;-76
2022/12/09 08:01:21;;;;;;;193.65;132.65;;;9.00;99.90;;;;;;4955537;29;20047;-76
2022/12/09 08:03:49;;;;;;;225.00;143.80;;;9.10;99.90;;;;;;4955583;29;20047;-75
2022/12/09 08:06:18;;;;;;;213.20;139.20;;;9.20;99.90;;;;;;4955623;29;20336;-75
2022/12/09 08:08:48;;;;;;;200.82;134.07;;;9.30;99.90;;;;;;4938063;29;20448;-76
2022/12/09 08:11:17;;;;;;;198.65;136.15;;;9.40;99.90;;;;;;4955614;29;20495;-75
2022/12/09 08:13:45;;;;;;;198.98;132.68;;;9.60;99.90;;;;;;4956441;29;20039;-74
2022/12/09 08:16:14;;;;;;;197.98;133.75;;;9.70;99.90;;;;;;4954888;29;20043;-76
2022/12/09 08:18:43;;;;;;;180.43;123.80;;;9.80;99.90;;;;;;4957351;28;20058;-76
2022/12/09 08:21:12;;;;;;;186.50;128.10;;;10.00;99.90;;;;;;4959294;29;20039;-75
2022/12/09 08:23:40;;;;;;;194.88;133.48;;;10.20;99.90;;;;;;4955496;29;20043;-76
2022/12/09 08:26:10;;;;;;;224.50;147.63;;;10.30;99.90;;;;;;4954641;29;20046;-76
2022/12/09 08:28:38;;;;;;;195.23;132.43;;;10.40;99.90;;;;;;4954129;28;20047;-75
2022/12/09 08:31:09;;;;;;;176.38;124.45;;;10.60;99.90;;;;;;4954754;29;20040;-76
2022/12/09 08:33:37;;;;;;;169.43;116.07;;;10.60;99.90;;;;;;4936084;29;20812;-77
2022/12/09 08:36:10;;;;;;;168.98;117.00;;;10.70;99.90;;;;;;4956945;29;20058;-78
2022/12/09 08:38:37;;;;;;;165.00;116.53;;;10.60;99.90;;;;;;4955392;29;20082;-75
2022/12/09 08:41:12;;;;;;;168.43;118.50;;;10.60;99.90;;;;;;4956165;29;20483;-77
2022/12/09 08:43:40;;;;;;;136.60;94.60;;;10.70;99.90;;;;;;4955182;29;20062;-76
2022/12/09 08:46:07;;;;;;;154.88;108.45;;;10.70;99.90;;;;;;4955041;29;20050;-77
2022/12/09 08:48:36;;;;;;;141.82;96.97;;;10.70;99.90;;;;;;4954450;28;20070;-77
2022/12/09 08:51:04;;;;;;;141.10;100.15;;;10.90;99.90;;;;;;4955061;29;20451;-75
2022/12/09 08:53:32;;;;;;;150.25;107.18;;;11.00;99.90;;;;;;4955623;29;20050;-75
2022/12/09 08:55:59;;;;;;;154.75;103.22;;;11.20;99.90;;;;;;4957014;29;20044;-78
2022/12/09 08:58:29;;;;;;;151.30;104.72;;;11.40;99.90;;;;;;4955368;28;20059;-74
2022/12/09 09:00:57;;;;;;;154.23;107.65;;;11.50;99.90;;;;;;4953593;29;20055;-75
2022/12/09 09:03:24;;;;;;;151.10;105.70;;;11.60;99.90;;;;;;4956859;29;20098;-76
2022/12/09 09:05:52;;;;;;;156.18;107.05;;;11.60;99.90;;;;;;4958236;29;20047;-74
2022/12/09 09:08:19;;;;;;;165.20;112.25;;;11.70;99.90;;;;;;4955692;28;20067;-75
2022/12/09 09:10:47;;;;;;;161.77;114.10;;;11.70;99.90;;;;;;4954583;29;20047;-75
2022/12/09 09:13:14;;;;;;;162.10;112.05;;;11.80;99.90;;;;;;4954006;29;20043;-76
2022/12/09 09:15:43;;;;;;;161.63;115.72;;;11.90;99.90;;;;;;4954521;29;20071;-76
2022/12/09 09:18:10;;;;;;;163.63;115.60;;;12.00;99.90;;;;;;4954636;29;20043;-76
2022/12/09 09:20:37;;;;;;;151.43;105.97;;;12.00;99.90;;;;;;4956280;28;20558;-77
2022/12/09 09:23:05;;;;;;;149.23;105.10;;;12.10;99.90;;;;;;4956272;29;20043;-75
2022/12/09 09:25:32;;;;;;;149.52;111.00;;;12.20;99.90;;;;;;4956507;29;20047;-76
2022/12/09 09:27:59;;;;;;;147.90;101.20;;;12.30;99.90;;;;;;4955040;29;20094;-75
2022/12/09 09:30:27;;;;;;;123.68;89.97;;;12.20;99.90;;;;;;4957762;28;20047;-76
2022/12/09 09:32:56;;;;;;;132.70;94.00;;;12.30;99.90;;;;;;4955700;29;20566;-74
2022/12/09 09:35:23;;;;;;;128.93;93.90;;;12.30;99.90;;;;;;4954298;29;20054;-75
2022/12/09 09:37:53;;;;;;;130.98;94.43;;;12.30;99.90;;;;;;4958130;29;20047;-74
2022/12/09 09:40:21;;;;;;;155.30;111.53;;;12.20;99.90;;;;;;4957862;29;20388;-76
2022/12/09 09:42:50;;;;;;;168.38;120.50;;;12.20;99.90;;;;;;4959870;29;20074;-75
2022/12/09 09:45:20;;;;;;;128.63;93.32;;;12.30;99.90;;;;;;4941051;29;20164;-76
2022/12/09 09:47:51;;;;;;;124.50;93.65;;;12.30;99.90;;;;;;4941344;29;20098;-76
2022/12/09 09:50:28;;;;;;;139.73;103.00;;;12.20;99.90;;;;;;4961187;28;20423;-75
2022/12/09 09:52:56;;;;;;;130.05;98.45;;;12.10;99.90;;;;;;4962208;29;20043;-74
2022/12/09 09:55:35;;;;;;;131.50;96.40;;;12.10;99.90;;;;;;4954271;29;20058;-77
2022/12/09 09:58:12;;;;;;;124.53;91.75;;;12.20;99.90;;;;;;4952637;29;20079;-79
2022/12/09 10:00:48;;;;;;;133.70;96.18;;;12.30;99.90;;;;;;4961875;28;20043;-75
2022/12/09 10:03:32;;;;;;;128.13;95.22;;;12.40;99.90;;;;;;4961782;29;20476;-75
2022/12/09 10:06:06;;;;;;;133.18;94.00;;;12.50;99.90;;;;;;4958387;29;20513;-76
2022/12/09 10:08:41;;;;;;;149.07;105.55;;;12.60;99.90;;;;;;4957646;28;20098;-75
2022/12/09 10:11:16;;;;;;;149.57;109.10;;;12.70;99.90;;;;;;4957523;29;20106;-77
2022/12/09 10:13:49;;;;;;;152.52;112.55;;;12.70;99.90;;;;;;4957906;29;20051;-77
2022/12/09 10:16:19;;;;;;;155.18;108.68;;;12.70;99.90;;;;;;4937735;29;20094;-75
2022/12/09 10:19:01;;;;;;;169.98;122.13;;;12.80;99.90;;;;;;4937752;29;20047;-75
2022/12/09 10:21:31;;;;;;;145.07;107.32;;;12.80;99.90;;;;;;4940125;29;20036;-75
2022/12/09 10:24:18;;;;;;;178.55;128.65;;;12.80;99.90;;;;;;4938507;29;20440;-75
2022/12/09 10:26:56;;;;;;;172.73;123.43;;;12.80;99.90;;;;;;4938716;29;20044;-74
2022/12/09 10:29:48;;;;;;;163.70;116.90;;;12.90;99.90;;;;;;4940236;29;20090;-78
2022/12/09 10:32:20;;;;;;;157.48;113.60;;;12.90;99.90;;;;;;4930283;29;20130;-83
2022/12/09 10:34:48;;;;;;;147.82;108.18;;;12.80;99.90;;;;;;4941004;29;20123;-77
2022/12/09 10:37:27;;;;;;;164.30;122.55;;;12.80;99.90;;;;;;4934833;29;20415;-78
2022/12/09 10:40:01;;;;;;;214.27;159.85;;;12.90;99.90;;;;;;4952532;29;20051;-84
2022/12/09 10:45:17;;;;;;;200.93;145.05;;;13.10;99.90;;;;;;4942441;29;20083;-84
2022/12/09 10:47:51;;;;;;;191.77;138.45;;;13.20;99.90;;;;;;4926966;29;20178;-85
2022/12/09 10:50:42;;;;;;;180.85;131.90;;;13.30;99.90;;;;;;4924678;29;20142;-83
2022/12/09 10:53:15;;;;;;;188.80;136.43;;;13.50;99.90;;;;;;4921432;29;20046;-76
2022/12/09 10:55:49;;;;;;;193.07;140.05;;;13.60;99.90;;;;;;4938267;29;20036;-77
2022/12/09 10:58:20;;;;;;;216.05;153.05;;;13.70;99.90;;;;;;4937684;29;20044;-77
2022/12/09 11:01:06;;;;;;;227.32;162.88;;;13.80;99.90;;;;;;4936905;29;20194;-76
2022/12/09 11:03:35;;;;;;;210.35;155.32;;;13.80;99.90;;;;;;4921439;29;20400;-76
2022/12/09 11:06:18;;;;;;;212.13;154.15;;;14.00;99.90;;;;;;4923411;29;20043;-77
2022/12/09 11:08:53;;;;;;;189.30;141.88;;;14.20;99.90;;;;;;4947963;29;20048;-76
2022/12/09 11:11:38;;;;;;;196.68;142.48;;;14.20;99.90;;;;;;4949249;29;20126;-79
2022/12/09 11:14:24;;;;;;;199.82;142.50;;;14.30;99.90;;;;;;4943370;28;20046;-75
2022/12/09 11:16:54;;;;;;;192.88;144.20;;;14.40;99.90;;;;;;4939368;29;20434;-77
2022/12/09 11:19:33;;;;;;;189.05;137.07;;;14.50;99.90;;;;;;4957067;28;20304;-76
2022/12/09 11:22:15;;;;;;;188.95;137.95;;;14.50;99.90;;;;;;4959390;29;20035;-77
2022/12/09 11:24:44;;;;;;;191.05;138.98;;;14.60;99.90;;;;;;4957546;28;20149;-77
2022/12/09 11:27:30;;;;;;;196.70;142.40;;;14.60;99.90;;;;;;4957500;29;20095;-77
2022/12/09 11:30:11;;;;;;;118.88;83.55;;;14.60;99.90;;;;;;4956611;29;20043;-76
2022/12/09 11:32:55;;;;;;;192.25;138.23;;;14.60;99.90;;;;;;4956923;29;20047;-77
2022/12/09 11:35:29;;;;;;;181.30;133.43;;;14.70;99.90;;;;;;4956650;29;20060;-78
2022/12/09 11:38:02;;;;;;;158.35;116.13;;;14.80;99.90;;;;;;4957243;28;20043;-78
2022/12/09 11:40:32;;;;;;;170.95;130.43;;;14.80;99.90;;;;;;4956853;29;20043;-78
2022/12/09 11:43:00;;;;;;;172.20;123.40;;;14.80;99.90;;;;;;4959650;29;20035;-77
2022/12/09 11:45:30;;;;;;;192.02;134.70;;;14.90;99.90;;;;;;4940452;29;20463;-79
2022/12/09 11:48:07;;;;;;;195.88;144.05;;;15.00;99.90;;;;;;4957415;28;20043;-77
2022/12/09 11:50:40;;;;;;;171.07;124.70;;;15.10;99.90;;;;;;4955468;29;20122;-79
2022/12/09 11:53:23;;;;;;;182.07;132.05;;;15.10;99.90;;;;;;4956888;29;20491;-78
2022/12/09 11:55:56;;;;;;;190.98;134.13;;;15.10;99.90;;;;;;4956126;29;20439;-78
2022/12/09 11:58:27;;;;;;;184.90;132.82;;;15.10;99.90;;;;;;4956861;28;20105;-77
2022/12/09 12:01:02;;;;;;;135.02;93.05;;;15.10;99.90;;;;;;4956591;28;20043;-77
2022/12/09 12:03:37;;;;;;;156.90;106.45;;;14.90;99.90;;;;;;4956600;29;20043;-78
2022/12/09 12:06:08;;;;;;;152.45;107.95;;;14.90;99.90;;;;;;4956555;29;20039;-79
2022/12/09 12:08:42;;;;;;;146.60;98.82;;;14.90;99.90;;;;;;4957512;28;20051;-77
2022/12/09 12:11:12;;;;;;;171.02;122.95;;;14.90;99.90;;;;;;4947134;29;20149;-77
2022/12/09 12:13:45;;;;;;;168.02;124.32;;;14.90;99.90;;;;;;4956364;29;20039;-77
2022/12/09 12:16:19;;;;;;;151.05;105.00;;;14.90;99.90;;;;;;4956845;29;20082;-77
2022/12/09 12:18:50;;;;;;;156.85;109.07;;;14.80;99.90;;;;;;4955309;28;20054;-77
2022/12/09 12:21:53;;;;;;;149.75;106.47;;;14.70;99.90;;;;;;4956614;29;20135;-78
2022/12/09 12:25:02;;;;;;;183.82;131.65;;;14.80;99.90;;;;;;4905527;29;20554;-76
2022/12/09 12:27:43;;;;;;;161.88;117.20;;;14.90;99.90;;;;;;4942022;29;20095;-77
2022/12/09 12:30:13;;;;;;;143.68;102.65;;;14.90;99.90;;;;;;4955313;29;20050;-75
2022/12/09 12:32:54;;;;;;;138.23;97.03;;;14.90;99.90;;;;;;4956775;29;20035;-77
2022/12/09 12:35:44;;;;;;;152.73;104.57;;;15.00;99.90;;;;;;4960000;29;20050;-77
2022/12/09 12:38:20;;;;;;;161.40;110.32;;;15.10;99.90;;;;;;4941706;29;20059;-77
2022/12/09 12:40:50;;;;;;;;;;;15.20;99.90;;;;;;4959746;29;20070;-80
2022/12/09 12:46:43;;;;;;;201.13;134.98;;;15.30;99.90;;;;;;4954968;29;20047;-77